createdAt,value
2022-11-30T00:01:18.853Z,9.01
2022-11-30T00:03:45.223Z,9.01
2022-11-30T00:06:17.245Z,9.03
2022-11-30T00:08:43.727Z,9.05
2022-11-30T00:11:15.471Z,9.05
2022-11-30T00:13:41.978Z,9.05
2022-11-30T00:16:09.090Z,9.06
2022-11-30T00:18:36.753Z,9.07
2022-11-30T00:21:06.256Z,9.10
2022-11-30T00:23:37.632Z,9.09
2022-11-30T00:26:06.788Z,9.07
2022-11-30T00:28:35.067Z,9.10
2022-11-30T00:31:07.916Z,9.10
2022-11-30T00:33:36.628Z,9.09
2022-11-30T00:36:09.144Z,9.09
2022-11-30T00:38:36.021Z,9.10
2022-11-30T00:41:03.262Z,9.10
2022-11-30T00:43:29.887Z,9.09
2022-11-30T00:45:56.756Z,9.08
2022-11-30T00:48:23.281Z,9.08
2022-11-30T00:50:50.887Z,9.08
2022-11-30T00:53:18.140Z,9.09
2022-11-30T00:55:45.130Z,9.10
2022-11-30T00:58:12.376Z,9.11
2022-11-30T01:00:40.301Z,9.10
2022-11-30T01:03:06.802Z,9.10
2022-11-30T01:05:34.622Z,9.09
2022-11-30T01:08:02.580Z,9.11
2022-11-30T01:10:29.174Z,9.11
2022-11-30T01:12:55.617Z,9.12
2022-11-30T01:15:22.253Z,9.11
2022-11-30T01:17:48.638Z,9.12
2022-11-30T01:20:15.069Z,9.12
2022-11-30T01:22:41.437Z,9.15
2022-11-30T01:25:08.224Z,9.13
2022-11-30T01:27:34.619Z,9.14
2022-11-30T01:30:01.049Z,9.15
2022-11-30T01:32:28.017Z,9.14
2022-11-30T01:34:54.424Z,9.10
2022-11-30T01:37:20.786Z,9.07
2022-11-30T01:39:47.138Z,9.07
2022-11-30T01:42:16.072Z,9.05
2022-11-30T01:44:53.014Z,9.07
2022-11-30T01:47:25.597Z,9.08
2022-11-30T01:50:01.197Z,9.09
2022-11-30T01:52:34.694Z,9.08
2022-11-30T01:55:14.399Z,9.07
2022-11-30T01:57:51.641Z,9.09
2022-11-30T02:00:18.859Z,9.11
2022-11-30T02:03:11.221Z,9.12
2022-11-30T02:05:39.638Z,9.10
2022-11-30T02:08:08.331Z,9.10
2022-11-30T02:10:38.399Z,9.09
2022-11-30T02:13:34.958Z,9.10
2022-11-30T02:16:26.877Z,9.10
2022-11-30T02:19:25.050Z,9.09
2022-11-30T02:22:06.774Z,9.09
2022-11-30T02:24:53.215Z,9.09
2022-11-30T02:27:50.432Z,9.07
2022-11-30T02:30:20.113Z,9.07
2022-11-30T02:32:52.818Z,9.05
2022-11-30T02:35:24.944Z,9.05
2022-11-30T02:37:54.654Z,9.07
2022-11-30T02:40:22.083Z,9.07
2022-11-30T02:42:51.856Z,9.09
2022-11-30T02:45:29.505Z,9.12
2022-11-30T02:48:07.668Z,9.12
2022-11-30T02:50:40.831Z,9.13
2022-11-30T02:53:09.465Z,9.12
2022-11-30T02:55:36.729Z,9.12
2022-11-30T02:58:03.631Z,9.08
2022-11-30T03:00:30.051Z,9.09
2022-11-30T03:02:56.491Z,9.08
2022-11-30T03:05:23.076Z,9.08
2022-11-30T03:07:49.485Z,9.09
2022-11-30T03:10:16.160Z,9.09
2022-11-30T03:12:42.545Z,8.99
2022-11-30T03:15:09.255Z,8.97
2022-11-30T03:17:35.651Z,8.97
2022-11-30T03:20:02.028Z,8.98
2022-11-30T03:22:28.984Z,8.98
2022-11-30T03:24:55.456Z,8.97
2022-11-30T03:27:22.684Z,8.90
2022-11-30T03:29:49.135Z,8.87
2022-11-30T03:32:15.539Z,8.87
2022-11-30T03:34:41.934Z,8.88
2022-11-30T03:37:08.355Z,8.89
2022-11-30T03:39:34.913Z,8.88
2022-11-30T03:42:01.395Z,8.86
2022-11-30T03:44:27.821Z,8.82
2022-11-30T03:46:54.291Z,8.82
2022-11-30T03:49:20.702Z,8.81
2022-11-30T03:51:47.211Z,8.81
2022-11-30T03:54:13.642Z,8.80
2022-11-30T03:59:23.854Z,8.78
2022-11-30T04:01:50.310Z,8.77
2022-11-30T04:04:16.758Z,8.81
2022-11-30T04:06:43.182Z,8.81
2022-11-30T04:09:10.169Z,8.76
2022-11-30T04:11:36.590Z,8.69
2022-11-30T04:14:02.991Z,8.72
2022-11-30T04:16:29.412Z,8.73
2022-11-30T04:18:55.777Z,8.75
2022-11-30T04:21:22.192Z,8.78
2022-11-30T04:23:48.615Z,8.79
2022-11-30T04:26:16.375Z,8.80
2022-11-30T04:28:43.220Z,8.79
2022-11-30T04:31:10.579Z,8.77
2022-11-30T04:33:37.279Z,8.76
2022-11-30T04:36:06.049Z,8.72
2022-11-30T04:38:33.457Z,8.69
2022-11-30T04:41:00.208Z,8.70
2022-11-30T04:43:27.076Z,8.69
2022-11-30T04:45:53.447Z,8.68
2022-11-30T04:48:20.221Z,8.68
2022-11-30T04:50:46.682Z,8.68
2022-11-30T04:53:13.124Z,8.66
2022-11-30T04:55:39.539Z,8.68
2022-11-30T04:58:06.780Z,8.69
2022-11-30T05:00:33.625Z,8.69
2022-11-30T05:02:59.985Z,8.69
2022-11-30T05:05:26.349Z,8.70
2022-11-30T05:07:59.981Z,8.72
2022-11-30T05:10:28.080Z,8.75
2022-11-30T05:12:54.475Z,8.74
2022-11-30T05:15:21.264Z,8.74
2022-11-30T05:17:47.700Z,8.74
2022-11-30T05:20:14.283Z,8.73
2022-11-30T05:22:40.628Z,8.71
2022-11-30T05:25:07.792Z,8.73
2022-11-30T05:27:35.193Z,8.72
2022-11-30T05:30:01.761Z,8.73
2022-11-30T05:32:28.188Z,8.73
2022-11-30T05:34:54.763Z,8.71
2022-11-30T05:37:21.498Z,8.71
2022-11-30T05:39:47.995Z,8.71
2022-11-30T05:42:14.377Z,8.70
2022-11-30T05:44:40.751Z,8.68
2022-11-30T05:47:07.164Z,8.67
2022-11-30T05:49:33.594Z,8.66
2022-11-30T05:52:00.014Z,8.63
2022-11-30T05:54:26.431Z,8.63
2022-11-30T05:56:55.035Z,8.65
2022-11-30T05:59:22.588Z,8.64
2022-11-30T06:01:51.263Z,8.64
2022-11-30T06:04:17.762Z,8.64
2022-11-30T06:06:44.222Z,8.65
2022-11-30T06:09:10.631Z,8.64
2022-11-30T06:11:36.980Z,8.63
2022-11-30T06:14:03.875Z,8.64
2022-11-30T06:16:30.392Z,8.65
2022-11-30T06:18:56.761Z,8.66
2022-11-30T06:21:24.806Z,8.65
2022-11-30T06:23:52.584Z,8.68
2022-11-30T06:26:19.184Z,8.68
2022-11-30T06:28:48.557Z,8.67
2022-11-30T06:31:16.403Z,8.68
2022-11-30T06:33:43.383Z,8.69
2022-11-30T06:36:10.317Z,8.72
2022-11-30T06:38:37.108Z,8.72
2022-11-30T06:41:06.062Z,8.72
2022-11-30T06:43:37.105Z,8.71
2022-11-30T06:46:04.807Z,8.68
2022-11-30T06:48:31.530Z,8.70
2022-11-30T06:50:58.816Z,8.70
2022-11-30T06:53:25.525Z,8.70
2022-11-30T06:55:52.312Z,8.66
2022-11-30T06:58:18.918Z,8.65
2022-11-30T07:00:45.478Z,8.63
2022-11-30T07:03:12.706Z,8.61
2022-11-30T07:05:44.932Z,8.56
2022-11-30T07:08:12.486Z,8.53
2022-11-30T07:10:46.356Z,8.50
2022-11-30T07:13:15.027Z,8.46
2022-11-30T07:15:42.260Z,8.44
2022-11-30T07:18:09.700Z,8.42
2022-11-30T07:20:36.984Z,8.41
2022-11-30T07:23:22.291Z,8.40
2022-11-30T07:26:09.617Z,8.40
2022-11-30T07:28:44.265Z,8.41
2022-11-30T07:31:16.654Z,8.41
2022-11-30T07:33:44.073Z,8.40
2022-11-30T07:36:11.327Z,8.40
2022-11-30T07:38:38.462Z,8.42
2022-11-30T07:41:05.252Z,8.45
2022-11-30T07:43:31.970Z,8.44
2022-11-30T07:45:58.953Z,8.45
2022-11-30T07:48:25.398Z,8.48
2022-11-30T07:50:51.786Z,8.49
2022-11-30T07:53:18.342Z,8.53
2022-11-30T07:55:44.763Z,8.55
2022-11-30T07:58:15.848Z,8.54
2022-11-30T08:00:43.808Z,8.55
2022-11-30T08:03:10.462Z,8.54
2022-11-30T08:05:36.882Z,8.54
2022-11-30T08:08:03.411Z,8.53
2022-11-30T08:10:29.879Z,8.53
2022-11-30T08:12:56.277Z,8.54
2022-11-30T08:15:26.125Z,8.55
2022-11-30T08:17:55.957Z,8.59
2022-11-30T08:20:22.636Z,8.61
2022-11-30T08:22:49.627Z,8.63
2022-11-30T08:25:16.032Z,8.64
2022-11-30T08:27:42.421Z,8.65
2022-11-30T08:30:09.260Z,8.67
2022-11-30T08:32:35.649Z,8.69
2022-11-30T08:35:01.989Z,8.72
2022-11-30T08:37:28.425Z,8.74
2022-11-30T08:39:54.862Z,8.77
2022-11-30T08:42:21.220Z,8.81
2022-11-30T08:44:47.981Z,8.83
2022-11-30T08:47:14.361Z,8.87
2022-11-30T08:49:40.800Z,8.90
2022-11-30T08:52:22.404Z,8.91
2022-11-30T08:54:49.646Z,8.94
2022-11-30T08:57:18.867Z,8.94
2022-11-30T08:59:45.808Z,8.98
2022-11-30T09:02:16.898Z,9.00
2022-11-30T09:04:43.371Z,9.01
2022-11-30T09:07:09.883Z,9.03
2022-11-30T09:09:37.080Z,9.05
2022-11-30T09:12:03.678Z,9.07
2022-11-30T09:14:30.088Z,9.10
2022-11-30T09:16:56.674Z,9.11
2022-11-30T09:19:23.094Z,9.12
2022-11-30T09:21:51.869Z,9.11
2022-11-30T09:24:19.221Z,9.12
2022-11-30T09:26:45.605Z,9.14
2022-11-30T09:29:12.009Z,9.18
2022-11-30T09:31:38.424Z,9.20
2022-11-30T09:34:04.856Z,9.20
2022-11-30T09:36:32.934Z,9.20
2022-11-30T09:38:59.515Z,9.17
2022-11-30T09:41:28.508Z,9.18
2022-11-30T09:44:25.653Z,9.18
2022-11-30T09:47:03.770Z,9.16
2022-11-30T09:49:34.316Z,9.14
2022-11-30T09:52:04.507Z,9.16
2022-11-30T09:54:39.674Z,9.17
2022-11-30T09:57:25.317Z,9.15
2022-11-30T09:59:57.873Z,9.18
2022-11-30T10:02:33.601Z,9.18
2022-11-30T10:05:01.618Z,9.18
2022-11-30T10:07:59.646Z,9.19
2022-11-30T10:10:40.929Z,9.19
2022-11-30T10:13:34.905Z,9.16
2022-11-30T10:16:07.058Z,9.15
2022-11-30T10:18:54.079Z,9.13
2022-11-30T10:21:46.761Z,9.11
2022-11-30T10:24:45.506Z,9.11
2022-11-30T10:27:18.106Z,9.13
2022-11-30T10:29:44.542Z,9.13
2022-11-30T10:32:22.312Z,9.12
2022-11-30T10:34:53.833Z,9.08
2022-11-30T10:37:36.061Z,9.10
2022-11-30T10:40:15.215Z,9.08
2022-11-30T10:42:50.916Z,9.09
2022-11-30T10:45:20.979Z,9.08
2022-11-30T10:47:59.952Z,9.34
2022-11-30T10:50:29.214Z,9.37
2022-11-30T10:52:58.429Z,9.32
2022-11-30T10:55:29.078Z,9.32
2022-11-30T10:58:03.933Z,9.33
2022-11-30T11:00:30.511Z,9.24
2022-11-30T11:02:57.002Z,9.12
2022-11-30T11:05:26.307Z,9.10
2022-11-30T11:08:04.706Z,9.11
2022-11-30T11:10:51.951Z,9.05
2022-11-30T11:13:35.226Z,8.99
2022-11-30T11:16:02.843Z,9.03
2022-11-30T11:18:33.705Z,9.08
2022-11-30T11:21:22.512Z,8.96
2022-11-30T11:23:53.245Z,8.85
2022-11-30T11:26:21.017Z,8.80
2022-11-30T11:28:52.358Z,8.66
2022-11-30T11:31:29.577Z,8.63
2022-11-30T11:33:56.050Z,8.69
2022-11-30T11:36:32.911Z,8.68
2022-11-30T11:39:00.547Z,8.61
2022-11-30T11:41:35.655Z,8.64
2022-11-30T11:44:03.713Z,8.66
2022-11-30T11:46:33.005Z,8.61
2022-11-30T11:49:18.253Z,8.64
2022-11-30T11:51:45.655Z,8.62
2022-11-30T11:54:18.275Z,8.53
2022-11-30T11:56:44.711Z,8.42
2022-11-30T11:59:19.634Z,8.37
2022-11-30T12:02:11.733Z,8.28
2022-11-30T12:04:44.000Z,8.32
2022-11-30T12:07:17.973Z,8.40
2022-11-30T12:09:57.110Z,8.46
2022-11-30T12:12:23.627Z,8.43
2022-11-30T12:14:49.975Z,8.51
2022-11-30T12:17:37.191Z,8.69
2022-11-30T12:20:45.256Z,8.84
2022-11-30T12:23:31.439Z,8.93
2022-11-30T12:26:34.854Z,8.93
2022-11-30T12:29:10.439Z,8.90
2022-11-30T12:32:05.786Z,8.87
2022-11-30T12:34:38.200Z,8.87
2022-11-30T12:37:25.062Z,8.93
2022-11-30T12:39:58.323Z,8.98
2022-11-30T12:42:51.978Z,9.01
2022-11-30T12:45:36.092Z,8.96
2022-11-30T12:48:18.604Z,8.91
2022-11-30T12:51:04.141Z,8.82
2022-11-30T12:53:54.988Z,8.65
2022-11-30T12:57:02.909Z,8.61
2022-11-30T12:59:35.139Z,8.66
2022-11-30T13:02:13.403Z,8.76
2022-11-30T13:04:51.993Z,8.82
2022-11-30T13:07:29.582Z,8.80
2022-11-30T13:10:02.771Z,8.71
2022-11-30T13:12:37.079Z,8.55
2022-11-30T13:15:19.906Z,8.39
2022-11-30T13:17:47.958Z,8.22
2022-11-30T13:20:29.502Z,8.14
2022-11-30T13:23:03.059Z,8.22
2022-11-30T13:26:06.801Z,8.25
2022-11-30T13:28:54.739Z,8.23
2022-11-30T13:31:28.559Z,8.33
2022-11-30T13:33:55.022Z,8.44
2022-11-30T13:36:41.204Z,8.52
2022-11-30T13:39:28.965Z,8.54
2022-11-30T13:42:01.178Z,8.57
2022-11-30T13:44:34.904Z,8.60
2022-11-30T13:47:04.597Z,8.61
2022-11-30T13:49:34.491Z,8.58
2022-11-30T13:52:22.259Z,8.48
2022-11-30T13:54:51.143Z,8.37
2022-11-30T13:57:24.810Z,8.38
2022-11-30T13:59:53.001Z,8.34
2022-11-30T14:02:36.361Z,8.34
2022-11-30T14:05:22.626Z,8.22
2022-11-30T14:07:51.998Z,8.17
2022-11-30T14:10:34.939Z,8.19
2022-11-30T14:13:25.295Z,8.23
2022-11-30T14:15:54.413Z,8.18
2022-11-30T14:18:23.792Z,8.13
2022-11-30T14:20:57.335Z,8.11
2022-11-30T14:23:38.684Z,8.16
2022-11-30T14:26:11.635Z,8.17
2022-11-30T14:28:53.611Z,8.22
2022-11-30T14:31:26.486Z,8.22
2022-11-30T14:34:02.849Z,8.26
2022-11-30T14:36:41.409Z,8.30
2022-11-30T14:39:36.249Z,8.28
2022-11-30T14:42:05.361Z,8.25
2022-11-30T14:44:40.293Z,8.22
2022-11-30T14:47:25.249Z,8.23
2022-11-30T14:49:53.947Z,8.06
2022-11-30T14:52:42.883Z,7.92
2022-11-30T14:55:14.473Z,7.93
2022-11-30T14:57:54.116Z,7.84
2022-11-30T15:00:21.604Z,7.83
2022-11-30T15:02:49.527Z,7.87
2022-11-30T15:05:22.471Z,7.92
2022-11-30T15:07:50.171Z,7.93
2022-11-30T15:10:29.655Z,8.00
2022-11-30T15:12:59.006Z,7.90
2022-11-30T15:15:27.863Z,7.90
2022-11-30T15:18:16.155Z,7.96
2022-11-30T15:20:48.107Z,7.96
2022-11-30T15:23:15.567Z,7.89
2022-11-30T15:25:47.358Z,7.93
2022-11-30T15:28:36.749Z,7.93
2022-11-30T15:31:06.883Z,7.85
2022-11-30T15:33:46.097Z,7.80
2022-11-30T15:36:31.266Z,7.80
2022-11-30T15:39:03.003Z,7.83
2022-11-30T15:41:29.480Z,7.82
2022-11-30T15:43:57.019Z,7.77
2022-11-30T15:46:42.785Z,7.78
2022-11-30T15:49:12.587Z,7.81
2022-11-30T15:51:41.565Z,7.82
2022-11-30T15:54:08.040Z,7.84
2022-11-30T15:56:34.690Z,7.86
2022-11-30T15:59:06.898Z,7.85
2022-11-30T16:02:02.613Z,7.86
2022-11-30T16:04:57.905Z,7.87
2022-11-30T16:07:27.408Z,7.81
2022-11-30T16:10:06.716Z,7.83
2022-11-30T16:12:33.553Z,7.83
2022-11-30T16:14:59.952Z,7.84
2022-11-30T16:17:27.999Z,7.85
2022-11-30T16:19:54.448Z,7.85
2022-11-30T16:22:20.910Z,7.79
2022-11-30T16:24:47.313Z,7.79
2022-11-30T16:27:18.958Z,7.79
2022-11-30T16:29:51.872Z,7.79
2022-11-30T16:32:19.063Z,7.77
2022-11-30T16:34:45.525Z,7.76
2022-11-30T16:37:13.339Z,7.76
2022-11-30T16:39:39.719Z,7.77
2022-11-30T16:42:06.065Z,7.76
2022-11-30T16:44:32.404Z,7.72
2022-11-30T16:46:58.794Z,7.72
2022-11-30T16:49:25.209Z,7.69
2022-11-30T16:51:51.577Z,7.67
2022-11-30T16:54:17.985Z,7.64
2022-11-30T16:56:44.708Z,7.60
2022-11-30T16:59:16.446Z,7.60
2022-11-30T17:01:47.632Z,7.58
2022-11-30T17:04:20.269Z,7.58
2022-11-30T17:06:50.539Z,7.61
2022-11-30T17:09:19.043Z,7.63
2022-11-30T17:11:47.400Z,7.62
2022-11-30T17:14:14.419Z,7.57
2022-11-30T17:16:41.452Z,7.55
2022-11-30T17:19:08.504Z,7.51
2022-11-30T17:21:36.807Z,7.52
2022-11-30T17:24:03.480Z,7.50
2022-11-30T17:26:30.004Z,7.48
2022-11-30T17:28:56.427Z,7.46
2022-11-30T17:31:23.092Z,7.47
2022-11-30T17:33:49.696Z,7.50
2022-11-30T17:36:17.060Z,7.48
2022-11-30T17:38:44.003Z,7.48
2022-11-30T17:41:18.487Z,7.51
2022-11-30T17:43:46.445Z,7.54
2022-11-30T17:46:17.713Z,7.51
2022-11-30T17:48:44.559Z,7.51
2022-11-30T17:51:12.284Z,7.52
2022-11-30T17:53:39.998Z,7.50
2022-11-30T17:56:11.479Z,7.49
2022-11-30T17:58:43.323Z,7.42
2022-11-30T18:01:18.876Z,7.45
2022-11-30T18:03:46.058Z,7.47
2022-11-30T18:06:12.998Z,7.47
2022-11-30T18:08:40.145Z,7.49
2022-11-30T18:11:11.562Z,7.50
2022-11-30T18:13:39.104Z,7.50
2022-11-30T18:16:13.705Z,7.51
2022-11-30T18:18:47.024Z,7.50
2022-11-30T18:21:16.689Z,7.44
2022-11-30T18:23:43.045Z,7.44
2022-11-30T18:26:18.673Z,7.41
2022-11-30T18:28:45.524Z,7.43
2022-11-30T18:31:12.047Z,7.42
2022-11-30T18:33:38.913Z,7.37
2022-11-30T18:36:09.025Z,7.38
2022-11-30T18:38:38.298Z,7.39
2022-11-30T18:41:05.984Z,7.34
2022-11-30T18:43:33.345Z,7.38
2022-11-30T18:46:08.490Z,7.39
2022-11-30T18:48:35.997Z,7.42
2022-11-30T18:51:14.031Z,7.43
2022-11-30T18:53:41.343Z,7.43
2022-11-30T18:56:17.333Z,7.42
2022-11-30T18:58:44.490Z,7.41
2022-11-30T19:01:21.195Z,7.44
2022-11-30T19:03:59.608Z,7.44
2022-11-30T19:06:32.551Z,7.45
2022-11-30T19:09:00.900Z,7.47
2022-11-30T19:11:27.741Z,7.47
2022-11-30T19:13:55.907Z,7.49
2022-11-30T19:16:22.499Z,7.52
2022-11-30T19:18:48.948Z,7.53
2022-11-30T19:21:18.420Z,7.53
2022-11-30T19:23:46.245Z,7.52
2022-11-30T19:26:13.687Z,7.52
2022-11-30T19:28:41.316Z,7.47
2022-11-30T19:31:16.268Z,7.44
2022-11-30T19:33:44.605Z,7.42
2022-11-30T19:36:17.441Z,7.43
2022-11-30T19:38:44.179Z,7.39
2022-11-30T19:41:12.674Z,7.38
2022-11-30T19:43:39.502Z,7.41
2022-11-30T19:46:11.543Z,7.45
2022-11-30T19:48:39.772Z,7.47
2022-11-30T19:51:10.956Z,7.43
2022-11-30T19:53:41.108Z,7.42
2022-11-30T19:56:08.943Z,7.41
2022-11-30T19:58:35.332Z,7.39
2022-11-30T20:01:02.232Z,7.35
2022-11-30T20:03:28.652Z,7.35
2022-11-30T20:05:55.134Z,7.33
2022-11-30T20:08:21.571Z,7.31
2022-11-30T20:10:48.232Z,7.30
2022-11-30T20:13:14.641Z,7.32
2022-11-30T20:15:41.346Z,7.31
2022-11-30T20:18:08.146Z,7.30
2022-11-30T20:20:35.121Z,7.32
2022-11-30T20:23:02.170Z,7.32
2022-11-30T20:25:33.114Z,7.32
2022-11-30T20:28:00.010Z,7.35
2022-11-30T20:30:26.621Z,7.38
2022-11-30T20:32:53.055Z,7.39
2022-11-30T20:35:19.506Z,7.31
2022-11-30T20:37:45.991Z,7.32
2022-11-30T20:40:12.627Z,7.30
2022-11-30T20:42:39.052Z,7.32
2022-11-30T20:45:05.920Z,7.35
2022-11-30T20:47:35.282Z,7.30
2022-11-30T20:50:02.855Z,7.27
2022-11-30T20:52:29.213Z,7.23
2022-11-30T20:54:55.611Z,7.22
2022-11-30T20:57:21.954Z,7.24
2022-11-30T20:59:48.384Z,7.29
2022-11-30T21:02:14.876Z,7.25
2022-11-30T21:04:41.348Z,7.24
2022-11-30T21:07:07.738Z,7.23
2022-11-30T21:09:34.150Z,7.26
2022-11-30T21:12:00.574Z,7.27
2022-11-30T21:14:26.956Z,7.29
2022-11-30T21:16:53.384Z,7.29
2022-11-30T21:19:19.964Z,7.31
2022-11-30T21:21:46.397Z,7.33
2022-11-30T21:24:12.881Z,7.32
2022-11-30T21:26:41.252Z,7.27
2022-11-30T21:29:11.982Z,7.22
2022-11-30T21:31:38.760Z,7.22
2022-11-30T21:34:05.245Z,7.21
2022-11-30T21:36:31.810Z,7.22
2022-11-30T21:39:05.693Z,7.22
2022-11-30T21:41:35.132Z,7.22
2022-11-30T21:44:02.077Z,7.19
2022-11-30T21:46:28.515Z,7.18
2022-11-30T21:48:54.978Z,7.21
2022-11-30T21:51:24.351Z,7.18
2022-11-30T21:53:53.640Z,7.15
2022-11-30T21:56:23.473Z,7.15
2022-11-30T21:58:50.957Z,7.15
2022-11-30T22:01:24.286Z,7.17
2022-11-30T22:03:50.875Z,7.16
2022-11-30T22:06:18.916Z,7.14
2022-11-30T22:08:46.395Z,7.08
2022-11-30T22:11:18.425Z,7.08
2022-11-30T22:13:45.027Z,7.10
2022-11-30T22:16:14.367Z,7.11
2022-11-30T22:18:41.997Z,7.12
2022-11-30T22:21:17.138Z,7.12
2022-11-30T22:23:51.773Z,7.12
2022-11-30T22:26:29.718Z,7.14
2022-11-30T22:29:01.968Z,7.13
2022-11-30T22:31:31.666Z,7.13
2022-11-30T22:33:58.442Z,7.10
2022-11-30T22:36:27.851Z,7.07
2022-11-30T22:38:59.507Z,7.05
2022-11-30T22:41:27.000Z,7.03
2022-11-30T22:43:54.671Z,6.98
2022-11-30T22:46:26.616Z,6.96
2022-11-30T22:48:53.744Z,6.94
2022-11-30T22:51:23.226Z,6.92
2022-11-30T22:53:50.824Z,6.93
2022-11-30T22:56:18.831Z,6.92
2022-11-30T22:58:49.517Z,6.93
2022-11-30T23:01:24.194Z,6.90
2022-11-30T23:03:53.407Z,6.90
2022-11-30T23:06:20.918Z,6.87
2022-11-30T23:08:48.341Z,6.83
2022-11-30T23:11:18.225Z,6.80
2022-11-30T23:13:44.820Z,6.80
2022-11-30T23:16:13.219Z,6.80
2022-11-30T23:18:54.807Z,6.82
2022-11-30T23:21:30.262Z,6.85
2022-11-30T23:23:58.792Z,6.86
2022-11-30T23:26:28.824Z,6.86
2022-11-30T23:28:57.917Z,6.83
2022-11-30T23:31:33.450Z,6.76
2022-11-30T23:34:04.915Z,6.76
2022-11-30T23:36:32.107Z,6.78
2022-11-30T23:39:02.347Z,6.79
2022-11-30T23:41:29.036Z,6.81
2022-11-30T23:43:55.779Z,6.78
2022-11-30T23:46:22.766Z,6.78
2022-11-30T23:48:49.280Z,6.70
2022-11-30T23:51:15.735Z,6.69
2022-11-30T23:53:42.348Z,6.69
2022-11-30T23:56:13.470Z,6.68
2022-11-30T23:58:39.854Z,6.67
